createdAt,value
2022-09-24T00:00:45.861Z,37.22
2022-09-24T00:03:13.083Z,38.80
2022-09-24T00:05:40.577Z,36.92
2022-09-24T00:08:08.537Z,38.53
2022-09-24T00:10:40.084Z,38.60
2022-09-24T00:13:07.754Z,40.15
2022-09-24T00:15:38.576Z,41.08
2022-09-24T00:18:06.153Z,38.75
2022-09-24T00:20:33.302Z,39.15
2022-09-24T00:23:00.798Z,40.17
2022-09-24T00:25:46.843Z,41.03
2022-09-24T00:28:15.692Z,39.65
2022-09-24T00:30:44.006Z,41.35
2022-09-24T00:33:12.012Z,40.92
2022-09-24T00:35:42.269Z,38.75
2022-09-24T00:38:09.567Z,39.38
2022-09-24T00:40:37.603Z,40.50
2022-09-24T00:43:23.802Z,40.25
2022-09-24T00:45:52.874Z,41.45
2022-09-24T00:48:20.302Z,40.88
2022-09-24T00:50:48.068Z,41.65
2022-09-24T00:53:17.228Z,41.40
2022-09-24T00:55:46.025Z,42.95
2022-09-24T00:58:14.508Z,41.53
2022-09-24T01:00:45.744Z,43.95
2022-09-24T01:03:14.990Z,43.70
2022-09-24T01:05:42.169Z,42.85
2022-09-24T01:08:15.980Z,44.60
2022-09-24T01:10:51.865Z,44.75
2022-09-24T01:13:29.048Z,42.53
2022-09-24T01:16:01.190Z,42.38
2022-09-24T01:18:39.043Z,42.35
2022-09-24T01:21:16.663Z,43.88
2022-09-24T01:23:49.075Z,43.08
2022-09-24T01:26:36.151Z,43.13
2022-09-24T01:29:06.547Z,42.00
2022-09-24T01:31:36.757Z,45.25
2022-09-24T01:34:05.911Z,42.95
2022-09-24T01:36:34.805Z,42.10
2022-09-24T01:39:02.299Z,43.25
2022-09-24T01:41:29.851Z,44.50
2022-09-24T01:43:59.314Z,43.58
2022-09-24T01:46:27.137Z,44.92
2022-09-24T01:48:54.451Z,44.72
2022-09-24T01:51:22.136Z,45.50
2022-09-24T01:53:49.282Z,44.75
2022-09-24T01:56:35.740Z,44.10
2022-09-24T01:59:21.292Z,45.50
2022-09-24T02:01:51.559Z,45.17
2022-09-24T02:04:20.291Z,45.70
2022-09-24T02:06:51.470Z,44.35
2022-09-24T02:09:31.486Z,45.45
2022-09-24T02:12:01.410Z,46.47
2022-09-24T02:14:29.899Z,47.10
2022-09-24T02:16:58.467Z,46.63
2022-09-24T02:19:27.545Z,49.00
2022-09-24T02:21:55.537Z,45.45
2022-09-24T02:24:31.296Z,46.47
2022-09-24T02:26:58.537Z,47.75
2022-09-24T02:29:25.724Z,47.65
2022-09-24T02:31:55.117Z,47.35
2022-09-24T02:34:30.717Z,49.25
2022-09-24T02:37:06.098Z,50.20
2022-09-24T02:42:00.829Z,48.35
2022-09-24T02:44:28.583Z,49.88
2022-09-24T02:46:56.038Z,50.45
2022-09-24T02:49:23.252Z,49.60
2022-09-24T02:51:50.468Z,50.78
2022-09-24T02:54:17.593Z,49.85
2022-09-24T02:56:44.752Z,51.13
2022-09-24T02:59:12.326Z,51.53
2022-09-24T03:01:39.623Z,52.10
2022-09-24T03:04:07.051Z,50.97
2022-09-24T03:06:34.564Z,50.45
2022-09-24T03:09:03.420Z,51.90
2022-09-24T03:11:33.109Z,54.88
2022-09-24T03:14:00.680Z,54.38
2022-09-24T03:16:28.016Z,53.40
2022-09-24T03:18:55.180Z,53.25
2022-09-24T03:21:22.893Z,54.92
2022-09-24T03:23:50.422Z,54.72
2022-09-24T03:26:17.858Z,56.67
2022-09-24T03:28:45.082Z,53.45
2022-09-24T03:31:12.802Z,54.13
2022-09-24T03:33:41.812Z,55.72
2022-09-24T03:36:10.700Z,56.70
2022-09-24T03:38:38.738Z,57.05
2022-09-24T03:41:06.712Z,57.90
2022-09-24T03:43:34.154Z,55.10
2022-09-24T03:46:01.374Z,56.83
2022-09-24T03:48:30.054Z,55.78
2022-09-24T03:50:57.258Z,51.72
2022-09-24T03:53:24.398Z,55.72
2022-09-24T03:55:56.025Z,54.75
2022-09-24T03:58:23.607Z,54.97
2022-09-24T04:00:54.195Z,55.22
2022-09-24T04:03:21.941Z,54.65
2022-09-24T04:05:51.321Z,54.53
2022-09-24T04:08:19.221Z,52.60
2022-09-24T04:10:47.056Z,54.63
2022-09-24T04:13:14.594Z,51.58
2022-09-24T04:15:41.823Z,54.20
2022-09-24T04:18:09.334Z,54.13
2022-09-24T04:20:36.881Z,52.35
2022-09-24T04:23:04.353Z,54.42
2022-09-24T04:25:32.326Z,56.42
2022-09-24T04:28:09.851Z,54.13
2022-09-24T04:30:37.716Z,54.80
2022-09-24T04:33:05.054Z,49.00
2022-09-24T04:35:33.472Z,53.33
2022-09-24T04:38:00.651Z,55.35
2022-09-24T04:40:28.244Z,52.45
2022-09-24T04:42:55.418Z,55.47
2022-09-24T04:45:24.863Z,53.60
2022-09-24T04:47:53.567Z,54.28
2022-09-24T04:50:21.252Z,54.67
2022-09-24T04:52:48.732Z,55.70
2022-09-24T04:55:16.375Z,59.72
2022-09-24T04:57:44.651Z,59.45
2022-09-24T05:00:14.739Z,59.20
2022-09-24T05:02:42.267Z,60.08
2022-09-24T05:05:09.611Z,61.42
2022-09-24T05:07:37.189Z,61.47
2022-09-24T05:10:04.969Z,62.25
2022-09-24T05:12:32.131Z,62.15
2022-09-24T05:14:59.284Z,61.85
2022-09-24T05:17:26.405Z,64.65
2022-09-24T05:19:53.697Z,63.00
2022-09-24T05:22:20.878Z,61.15
2022-09-24T05:24:48.141Z,62.28
2022-09-24T05:27:15.261Z,62.10
2022-09-24T05:29:43.512Z,59.42
2022-09-24T05:32:12.401Z,60.45
2022-09-24T05:34:41.357Z,62.90
2022-09-24T05:37:08.549Z,62.00
2022-09-24T05:39:35.688Z,61.25
2022-09-24T05:42:08.156Z,65.13
2022-09-24T05:44:37.315Z,62.45
2022-09-24T05:47:04.474Z,61.08
2022-09-24T05:49:32.111Z,61.50
2022-09-24T05:51:59.280Z,61.08
2022-09-24T05:54:26.598Z,59.85
2022-09-24T05:56:53.950Z,57.70
2022-09-24T05:59:21.127Z,61.15
2022-09-24T06:01:49.266Z,61.20
2022-09-24T06:04:16.820Z,59.65
2022-09-24T06:06:44.248Z,58.35
2022-09-24T06:09:11.649Z,60.10
2022-09-24T06:11:40.726Z,58.15
2022-09-24T06:14:09.078Z,60.95
2022-09-24T06:16:36.865Z,60.42
2022-09-24T06:19:04.291Z,59.97
2022-09-24T06:21:31.444Z,57.13
2022-09-24T06:23:58.646Z,58.13
2022-09-24T06:26:26.443Z,57.10
2022-09-24T06:28:54.371Z,57.53
2022-09-24T06:31:21.931Z,55.70
2022-09-24T06:33:49.217Z,55.63
2022-09-24T06:36:16.385Z,56.03
2022-09-24T06:38:45.400Z,54.47
2022-09-24T06:41:12.771Z,57.17
2022-09-24T06:43:40.037Z,55.00
2022-09-24T06:46:07.288Z,53.03
2022-09-24T06:48:34.573Z,54.55
2022-09-24T06:51:01.788Z,54.25
2022-09-24T06:53:28.934Z,53.90
2022-09-24T06:55:57.861Z,53.28
2022-09-24T06:58:25.048Z,53.10
2022-09-24T07:00:59.005Z,51.00
2022-09-24T07:03:27.223Z,53.33
2022-09-24T07:05:54.638Z,52.75
2022-09-24T07:08:22.054Z,51.60
2022-09-24T07:10:49.920Z,51.83
2022-09-24T07:13:17.650Z,53.15
2022-09-24T07:15:45.738Z,51.63
2022-09-24T07:18:13.373Z,54.13
2022-09-24T07:20:41.041Z,53.33
2022-09-24T07:23:09.499Z,50.85
2022-09-24T07:25:37.501Z,51.20
2022-09-24T07:28:05.929Z,51.00
2022-09-24T07:30:33.890Z,50.45
2022-09-24T07:33:01.219Z,50.65
2022-09-24T07:35:29.129Z,50.65
2022-09-24T07:38:00.504Z,47.97
2022-09-24T07:40:28.078Z,47.38
2022-09-24T07:42:55.346Z,46.70
2022-09-24T07:45:23.592Z,46.13
2022-09-24T07:48:04.015Z,46.08
2022-09-24T07:50:32.380Z,43.72
2022-09-24T07:53:00.682Z,45.45
2022-09-24T07:55:28.314Z,44.17
2022-09-24T07:57:56.043Z,44.30
2022-09-24T08:00:24.175Z,43.25
2022-09-24T08:02:53.836Z,39.58
2022-09-24T08:05:21.078Z,37.75
2022-09-24T08:08:06.365Z,36.08
2022-09-24T08:10:33.573Z,34.40
2022-09-24T08:13:02.609Z,35.03
2022-09-24T08:15:29.817Z,34.08
2022-09-24T08:18:02.208Z,31.33
2022-09-24T08:20:29.497Z,36.65
2022-09-24T08:23:01.714Z,35.67
2022-09-24T08:25:28.915Z,33.35
2022-09-24T08:27:56.090Z,33.45
2022-09-24T08:30:23.316Z,33.67
2022-09-24T08:32:50.502Z,30.73
2022-09-24T08:35:17.740Z,31.63
2022-09-24T08:37:45.110Z,31.33
2022-09-24T08:40:18.755Z,33.17
2022-09-24T08:42:58.360Z,32.70
2022-09-24T08:45:44.409Z,30.67
2022-09-24T08:48:17.121Z,31.45
2022-09-24T08:50:49.532Z,33.05
2022-09-24T08:53:39.761Z,32.40
2022-09-24T08:56:07.382Z,29.48
2022-09-24T08:58:34.544Z,30.38
2022-09-24T09:01:11.106Z,29.48
2022-09-24T09:03:44.801Z,28.58
2022-09-24T09:06:21.305Z,28.85
2022-09-24T09:09:06.243Z,29.73
2022-09-24T09:11:35.197Z,27.42
2022-09-24T09:14:06.752Z,24.17
2022-09-24T09:16:33.962Z,18.90
2022-09-24T09:19:04.678Z,22.90
2022-09-24T09:21:35.632Z,22.27
2022-09-24T09:24:03.858Z,20.55
2022-09-24T09:26:31.716Z,18.58
2022-09-24T09:29:02.744Z,17.25
2022-09-24T09:31:52.503Z,15.50
2022-09-24T09:34:33.146Z,15.85
2022-09-24T09:37:12.341Z,14.48
2022-09-24T09:39:49.543Z,14.90
2022-09-24T09:42:20.096Z,10.45
2022-09-24T09:44:47.385Z,5.40
2022-09-24T09:47:24.691Z,3.42
2022-09-24T09:49:53.445Z,3.33
2022-09-24T09:52:21.761Z,5.30
2022-09-24T09:54:49.095Z,3.20
2022-09-24T09:57:18.107Z,3.95
2022-09-24T09:59:49.719Z,3.67
2022-09-24T10:02:22.477Z,7.90
2022-09-24T10:04:53.062Z,5.63
2022-09-24T10:07:20.206Z,4.57
2022-09-24T10:09:47.376Z,9.88
2022-09-24T10:12:19.943Z,8.27
2022-09-24T10:14:57.190Z,4.82
2022-09-24T10:17:26.438Z,4.22
2022-09-24T10:19:54.481Z,4.90
2022-09-24T10:22:27.057Z,3.17
2022-09-24T10:24:55.912Z,4.63
2022-09-24T10:27:36.305Z,6.60
2022-09-24T10:30:31.957Z,3.00
2022-09-24T10:32:59.757Z,3.35
2022-09-24T10:35:31.530Z,3.55
2022-09-24T10:38:00.571Z,5.15
2022-09-24T10:40:31.071Z,4.43
2022-09-24T10:42:59.721Z,4.60
2022-09-24T10:45:36.587Z,8.45
2022-09-24T10:48:18.184Z,5.20
2022-09-24T10:50:58.816Z,3.33
2022-09-24T10:53:44.488Z,3.30
2022-09-24T10:56:11.799Z,4.72
2022-09-24T10:58:41.932Z,3.10
2022-09-24T11:01:09.068Z,3.35
2022-09-24T11:03:37.145Z,2.97
2022-09-24T11:06:18.275Z,3.30
2022-09-24T11:09:17.912Z,5.53
2022-09-24T11:11:57.244Z,3.17
2022-09-24T11:14:45.124Z,3.60
2022-09-24T11:17:12.287Z,4.20
2022-09-24T11:19:57.896Z,3.67
2022-09-24T11:22:33.228Z,3.78
2022-09-24T11:25:18.105Z,4.35
2022-09-24T11:27:48.770Z,4.13
2022-09-24T11:30:19.967Z,5.60
2022-09-24T11:33:06.275Z,7.20
2022-09-24T11:35:48.276Z,5.47
2022-09-24T11:38:30.916Z,9.52
2022-09-24T11:41:17.014Z,7.03
2022-09-24T11:44:11.280Z,7.30
2022-09-24T11:46:47.395Z,7.05
2022-09-24T11:49:26.957Z,8.20
2022-09-24T11:52:13.189Z,15.77
2022-09-24T11:54:43.405Z,8.45
2022-09-24T11:57:20.476Z,8.25
2022-09-24T11:59:54.286Z,9.52
2022-09-24T12:02:25.992Z,7.97
2022-09-24T12:05:06.990Z,7.22
2022-09-24T12:07:50.337Z,7.13
2022-09-24T12:10:31.188Z,7.85
2022-09-24T12:13:02.519Z,7.78
2022-09-24T12:15:31.975Z,6.95
2022-09-24T12:18:09.325Z,7.60
2022-09-24T12:20:47.899Z,7.35
2022-09-24T12:23:17.484Z,8.00
2022-09-24T12:25:46.322Z,9.52
2022-09-24T12:28:14.918Z,5.68
2022-09-24T12:31:09.985Z,9.15
2022-09-24T12:33:39.370Z,9.02
2022-09-24T12:36:06.709Z,17.88
2022-09-24T12:38:43.309Z,10.43
2022-09-24T12:41:25.816Z,8.05
2022-09-24T12:43:58.959Z,6.88
2022-09-24T12:46:35.972Z,7.40
2022-09-24T12:49:03.405Z,7.70
2022-09-24T12:51:35.271Z,7.47
2022-09-24T12:54:18.391Z,8.73
2022-09-24T12:56:45.536Z,10.27
2022-09-24T12:59:26.059Z,8.15
2022-09-24T13:01:54.314Z,9.38
2022-09-24T13:04:22.147Z,10.90
2022-09-24T13:06:50.088Z,7.18
2022-09-24T13:09:35.567Z,6.75
2022-09-24T13:12:23.166Z,6.53
2022-09-24T13:15:02.663Z,5.32
2022-09-24T13:17:34.384Z,6.10
2022-09-24T13:20:05.569Z,6.68
2022-09-24T13:22:34.726Z,6.65
2022-09-24T13:25:11.185Z,7.43
2022-09-24T13:27:41.389Z,7.75
2022-09-24T13:30:15.689Z,7.93
2022-09-24T13:32:55.696Z,7.95
2022-09-24T13:35:25.676Z,7.10
2022-09-24T13:37:56.539Z,6.20
2022-09-24T13:40:26.626Z,6.00
2022-09-24T13:42:59.134Z,5.72
2022-09-24T13:45:26.467Z,6.47
2022-09-24T13:47:58.133Z,7.57
2022-09-24T13:50:27.116Z,8.13
2022-09-24T13:52:54.271Z,8.52
2022-09-24T13:55:23.632Z,9.23
2022-09-24T13:57:50.791Z,8.52
2022-09-24T14:00:20.067Z,8.07
2022-09-24T14:02:55.741Z,9.38
2022-09-24T14:05:23.289Z,13.20
2022-09-24T14:07:55.333Z,11.88
2022-09-24T14:10:24.947Z,13.15
2022-09-24T14:13:21.803Z,13.27
2022-09-24T14:16:02.631Z,12.05
2022-09-24T14:18:30.212Z,13.82
2022-09-24T14:21:06.223Z,14.30
2022-09-24T14:23:46.649Z,15.88
2022-09-24T14:26:22.864Z,14.23
2022-09-24T14:28:50.169Z,17.00
2022-09-24T14:31:17.653Z,18.05
2022-09-24T14:33:44.977Z,20.15
2022-09-24T14:36:13.752Z,36.75
2022-09-24T14:38:57.319Z,28.67
2022-09-24T14:41:30.089Z,25.08
2022-09-24T14:44:04.066Z,25.00
2022-09-24T14:46:36.429Z,26.00
2022-09-24T14:49:18.756Z,29.50
2022-09-24T14:52:02.455Z,28.35
2022-09-24T14:54:36.767Z,25.95
2022-09-24T14:57:11.498Z,24.30
2022-09-24T14:59:39.577Z,22.15
2022-09-24T15:02:19.171Z,21.95
2022-09-24T15:05:04.765Z,19.55
2022-09-24T15:07:34.043Z,16.48
2022-09-24T15:10:02.329Z,14.80
2022-09-24T15:12:31.488Z,15.23
2022-09-24T15:15:06.992Z,16.90
2022-09-24T15:20:01.403Z,14.85
2022-09-24T15:22:29.689Z,13.88
2022-09-24T15:25:01.565Z,14.25
2022-09-24T15:27:31.208Z,13.98
2022-09-24T15:29:59.982Z,22.50
2022-09-24T15:32:31.262Z,12.43
2022-09-24T15:34:58.444Z,11.35
2022-09-24T15:37:26.919Z,11.60
2022-09-24T15:39:56.765Z,8.93
2022-09-24T15:42:24.736Z,7.47
2022-09-24T15:44:51.921Z,6.57
2022-09-24T15:47:19.437Z,5.78
2022-09-24T15:49:46.716Z,4.38
2022-09-24T15:52:24.380Z,5.38
2022-09-24T15:54:52.504Z,4.85
2022-09-24T15:57:19.703Z,4.93
2022-09-24T15:59:46.851Z,5.32
2022-09-24T16:02:24.878Z,5.47
2022-09-24T16:04:52.865Z,4.90
2022-09-24T16:07:20.025Z,5.80
2022-09-24T16:09:47.207Z,5.60
2022-09-24T16:12:17.781Z,5.07
2022-09-24T16:14:45.422Z,4.50
2022-09-24T16:17:12.796Z,4.63
2022-09-24T16:19:39.960Z,4.70
2022-09-24T16:22:07.116Z,4.32
2022-09-24T16:24:34.872Z,4.32
2022-09-24T16:27:02.230Z,4.03
2022-09-24T16:29:29.492Z,4.40
2022-09-24T16:31:56.892Z,3.33
2022-09-24T16:34:24.222Z,3.67
2022-09-24T16:36:51.420Z,3.63
2022-09-24T16:39:19.497Z,3.47
2022-09-24T16:41:50.419Z,3.08
2022-09-24T16:44:17.994Z,3.80
2022-09-24T16:46:45.451Z,2.83
2022-09-24T16:49:13.083Z,3.33
2022-09-24T16:51:40.377Z,3.38
2022-09-24T16:54:07.602Z,3.15
2022-09-24T16:56:35.183Z,3.40
2022-09-24T16:59:02.398Z,3.20
2022-09-24T17:01:29.695Z,3.65
2022-09-24T17:03:57.968Z,3.08
2022-09-24T17:06:26.603Z,3.28
2022-09-24T17:09:12.489Z,3.42
2022-09-24T17:11:43.143Z,3.40
2022-09-24T17:14:13.593Z,2.97
2022-09-24T17:16:40.923Z,2.90
2022-09-24T17:19:09.451Z,2.50
2022-09-24T17:21:37.548Z,4.07
2022-09-24T17:24:04.801Z,2.85
2022-09-24T17:26:32.023Z,2.47
2022-09-24T17:28:59.210Z,2.40
2022-09-24T17:31:26.594Z,2.58
2022-09-24T17:34:00.089Z,3.00
2022-09-24T17:36:28.929Z,2.70
2022-09-24T17:38:57.000Z,2.60
2022-09-24T17:41:24.407Z,2.78
2022-09-24T17:43:52.081Z,3.13
2022-09-24T17:46:21.841Z,2.75
2022-09-24T17:48:51.351Z,2.50
2022-09-24T17:51:20.032Z,2.53
2022-09-24T17:53:47.946Z,2.30
2022-09-24T17:56:15.463Z,2.50
2022-09-24T17:58:43.882Z,2.35
2022-09-24T18:01:15.359Z,2.50
2022-09-24T18:03:42.669Z,2.80
2022-09-24T18:06:11.050Z,2.42
2022-09-24T18:08:42.459Z,2.85
2022-09-24T18:11:11.030Z,2.70
2022-09-24T18:13:38.853Z,2.72
2022-09-24T18:16:06.847Z,2.83
2022-09-24T18:18:34.263Z,3.25
2022-09-24T18:21:01.914Z,3.03
2022-09-24T18:23:29.266Z,3.20
2022-09-24T18:25:57.297Z,2.78
2022-09-24T18:28:24.483Z,3.08
2022-09-24T18:31:04.696Z,3.30
2022-09-24T18:33:32.857Z,3.15
2022-09-24T18:36:07.747Z,2.60
2022-09-24T18:38:35.115Z,3.45
2022-09-24T18:41:06.990Z,2.53
2022-09-24T18:43:34.138Z,1.80
2022-09-24T18:46:05.460Z,2.67
2022-09-24T18:48:33.154Z,2.50
2022-09-24T18:51:00.693Z,2.47
2022-09-24T18:53:31.387Z,3.33
2022-09-24T18:56:03.841Z,3.30
2022-09-24T18:58:31.038Z,2.75
2022-09-24T19:00:59.497Z,2.75
2022-09-24T19:03:27.377Z,3.97
2022-09-24T19:05:55.827Z,3.78
2022-09-24T19:08:24.043Z,5.07
2022-09-24T19:10:55.027Z,2.63
2022-09-24T19:13:26.403Z,2.83
2022-09-24T19:15:53.811Z,2.75
2022-09-24T19:18:21.336Z,3.22
2022-09-24T19:20:51.349Z,3.53
2022-09-24T19:23:18.504Z,4.47
2022-09-24T19:25:45.695Z,2.75
2022-09-24T19:28:13.548Z,2.97
2022-09-24T19:30:41.772Z,2.83
2022-09-24T19:33:14.091Z,3.50
2022-09-24T19:35:41.226Z,3.55
2022-09-24T19:38:08.399Z,3.13
2022-09-24T19:40:35.601Z,3.10
2022-09-24T19:43:03.556Z,2.95
2022-09-24T19:45:31.281Z,3.00
2022-09-24T19:47:59.313Z,4.00
2022-09-24T19:50:26.527Z,3.22
2022-09-24T19:52:55.891Z,3.83
2022-09-24T19:55:28.421Z,3.30
2022-09-24T19:57:56.378Z,3.30
2022-09-24T20:00:25.085Z,3.65
2022-09-24T20:02:52.415Z,2.80
2022-09-24T20:05:19.597Z,4.00
2022-09-24T20:07:47.291Z,2.70
2022-09-24T20:10:14.608Z,3.28
2022-09-24T20:12:42.732Z,2.63
2022-09-24T20:15:10.334Z,3.22
2022-09-24T20:17:37.491Z,2.88
2022-09-24T20:20:04.953Z,2.45
2022-09-24T20:22:33.549Z,2.67
2022-09-24T20:25:00.726Z,2.85
2022-09-24T20:27:46.701Z,3.70
2022-09-24T20:30:14.086Z,2.70
2022-09-24T20:32:44.231Z,3.10
2022-09-24T20:35:11.689Z,2.75
2022-09-24T20:37:39.165Z,3.00
2022-09-24T20:40:07.137Z,3.08
2022-09-24T20:42:34.439Z,2.60
2022-09-24T20:45:06.107Z,2.33
2022-09-24T20:47:33.612Z,3.28
2022-09-24T20:50:00.751Z,3.33
2022-09-24T20:52:27.920Z,2.45
2022-09-24T20:54:55.155Z,3.15
2022-09-24T20:57:22.280Z,3.38
2022-09-24T20:59:50.237Z,3.22
2022-09-24T21:02:17.446Z,3.42
2022-09-24T21:04:44.626Z,3.25
2022-09-24T21:07:11.789Z,2.42
2022-09-24T21:09:38.921Z,3.15
2022-09-24T21:12:06.124Z,2.80
2022-09-24T21:14:35.801Z,2.80
2022-09-24T21:17:03.432Z,2.70
2022-09-24T21:19:32.453Z,2.53
2022-09-24T21:22:01.637Z,2.63
2022-09-24T21:24:31.406Z,3.20
2022-09-24T21:27:01.697Z,2.78
2022-09-24T21:29:28.912Z,2.67
2022-09-24T21:31:56.102Z,2.10
2022-09-24T21:34:23.307Z,2.08
2022-09-24T21:36:52.117Z,2.45
2022-09-24T21:39:20.457Z,2.38
2022-09-24T21:41:49.966Z,2.70
2022-09-24T21:44:17.727Z,2.55
2022-09-24T21:46:46.116Z,2.50
2022-09-24T21:49:13.509Z,3.00
2022-09-24T21:51:42.116Z,2.20
2022-09-24T21:54:11.828Z,3.13
2022-09-24T21:56:39.620Z,2.17
2022-09-24T21:59:26.998Z,1.85
2022-09-24T22:01:55.233Z,2.58
2022-09-24T22:04:22.946Z,2.70
2022-09-24T22:06:50.979Z,1.73
2022-09-24T22:09:18.573Z,3.75
2022-09-24T22:11:45.901Z,1.90
2022-09-24T22:14:13.732Z,2.65
2022-09-24T22:16:40.914Z,1.90
2022-09-24T22:19:09.341Z,2.35
2022-09-24T22:21:37.073Z,2.67
2022-09-24T22:24:04.722Z,2.00
2022-09-24T22:26:31.933Z,2.42
2022-09-24T22:28:59.466Z,2.70
2022-09-24T22:31:26.986Z,2.30
2022-09-24T22:34:13.004Z,2.42
2022-09-24T22:36:40.457Z,2.38
2022-09-24T22:39:07.971Z,2.00
2022-09-24T22:41:40.025Z,2.80
2022-09-24T22:44:07.698Z,2.08
2022-09-24T22:46:36.420Z,2.78
2022-09-24T22:49:04.670Z,2.72
2022-09-24T22:51:32.033Z,2.30
2022-09-24T22:54:00.201Z,2.05
2022-09-24T22:56:28.476Z,2.13
2022-09-24T22:58:56.968Z,2.58
2022-09-24T23:01:31.797Z,2.40
2022-09-24T23:03:59.077Z,2.53
2022-09-24T23:06:26.669Z,2.22
2022-09-24T23:08:54.967Z,2.35
2022-09-24T23:11:23.319Z,2.33
2022-09-24T23:13:55.653Z,2.00
2022-09-24T23:16:24.474Z,2.22
2022-09-24T23:18:53.900Z,2.22
2022-09-24T23:21:21.569Z,2.40
2022-09-24T23:23:52.390Z,2.47
2022-09-24T23:26:20.161Z,3.25
2022-09-24T23:28:52.585Z,3.45
2022-09-24T23:31:25.319Z,3.08
2022-09-24T23:33:52.813Z,2.17
2022-09-24T23:36:20.008Z,2.85
2022-09-24T23:38:47.143Z,3.45
2022-09-24T23:41:14.902Z,2.88
2022-09-24T23:43:42.454Z,2.65
2022-09-24T23:46:10.359Z,2.58
2022-09-24T23:48:37.861Z,2.70
2022-09-24T23:51:05.467Z,2.97
2022-09-24T23:53:34.199Z,2.38
2022-09-24T23:56:01.872Z,2.20
2022-09-24T23:58:29.443Z,2.97
